Time;durP1;ratioP1;P1;durP2;ratioP2;P2;SDS_P1;SDS_P2;PMS_P1;PMS_P2;Temp;Humidity;BMP_temperature;BMP_pressure;BME280_temperature;BME280_humidity;BME280_pressure;Samples;Min_cycle;Max_cycle;Signal;HPM_P1;HPM_P2
2021/08/31 00:00:59;;;;;;;11.77;8.30;;;;;;;13.77;100.00;100689.22;4988707;28;20215;-73
2021/08/31 00:03:26;;;;;;;16.43;8.57;;;;;;;13.77;100.00;100698.84;4987849;28;20244;-73
2021/08/31 00:05:52;;;;;;;13.77;8.10;;;;;;;13.74;100.00;100697.19;4989819;28;20208;-73
2021/08/31 00:08:21;;;;;;;13.07;7.97;;;;;;;13.73;100.00;100707.75;4991917;28;20197;-73
2021/08/31 00:10:48;;;;;;;11.97;7.37;;;;;;;13.71;100.00;100709.56;4989206;28;20296;-73
2021/08/31 00:13:14;;;;;;;12.47;8.33;;;;;;;13.69;100.00;100703.53;4986650;28;20230;-73
2021/08/31 00:15:40;;;;;;;15.73;9.63;;;;;;;13.68;100.00;100691.34;4994369;28;20824;-73
2021/08/31 00:18:09;;;;;;;14.47;9.07;;;;;;;13.65;100.00;100692.31;4988552;28;20203;-73
2021/08/31 00:20:35;;;;;;;16.80;8.83;;;;;;;13.64;100.00;100695.84;4989070;28;20312;-73
2021/08/31 00:23:02;;;;;;;15.50;8.60;;;;;;;13.61;100.00;100702.06;4990246;28;20201;-73
2021/08/31 00:25:28;;;;;;;15.07;8.70;;;;;;;13.59;100.00;100700.41;4992469;28;20215;-73
2021/08/31 00:27:55;;;;;;;13.70;8.73;;;;;;;13.57;100.00;100716.16;4987537;28;20397;-73
2021/08/31 00:30:21;;;;;;;14.60;9.17;;;;;;;13.57;100.00;100710.94;4989768;28;20224;-73
2021/08/31 00:32:47;;;;;;;14.87;9.27;;;;;;;13.56;100.00;100717.09;4992344;28;20232;-73
2021/08/31 00:35:15;;;;;;;12.13;8.40;;;;;;;13.55;100.00;100704.03;4987566;28;20704;-74
2021/08/31 00:37:42;;;;;;;17.00;8.50;;;;;;;13.53;100.00;100711.13;4988956;28;20197;-74
2021/08/31 00:40:10;;;;;;;14.20;8.70;;;;;;;13.52;100.00;100709.41;4987762;28;20224;-73
2021/08/31 00:42:36;;;;;;;15.33;8.37;;;;;;;13.50;100.00;100709.44;5009247;28;20198;-73
2021/08/31 00:45:03;;;;;;;15.27;8.83;;;;;;;13.51;100.00;100720.78;4992156;28;20217;-73
2021/08/31 00:47:30;;;;;;;12.23;8.40;;;;;;;13.49;100.00;100715.63;4987574;28;20220;-74
2021/08/31 00:49:56;;;;;;;16.00;9.03;;;;;;;13.49;100.00;100714.75;4985899;28;20621;-73
2021/08/31 00:52:24;;;;;;;14.37;9.03;;;;;;;13.47;100.00;100711.31;4984228;28;20217;-73
2021/08/31 00:54:50;;;;;;;16.50;9.27;;;;;;;13.46;100.00;100715.72;4988218;28;20211;-74
2021/08/31 00:57:18;;;;;;;18.07;9.33;;;;;;;13.46;100.00;100720.97;4986884;28;20239;-73
2021/08/31 00:59:44;;;;;;;12.77;8.27;;;;;;;13.47;100.00;100713.94;4981530;28;20236;-73
2021/08/31 01:02:11;;;;;;;15.73;9.13;;;;;;;13.44;100.00;100714.94;4979875;28;20669;-73
2021/08/31 01:04:37;;;;;;;15.20;8.87;;;;;;;13.43;100.00;100721.91;4985698;28;20209;-74
2021/08/31 01:07:04;;;;;;;14.37;9.10;;;;;;;13.42;100.00;100730.69;4983388;28;20207;-73
2021/08/31 01:09:33;;;;;;;15.90;9.13;;;;;;;13.40;100.00;100727.28;4988291;28;20221;-73
2021/08/31 01:12:00;;;;;;;13.97;8.57;;;;;;;13.41;100.00;100728.13;4989388;28;20639;-74
2021/08/31 01:14:27;;;;;;;16.57;9.70;;;;;;;13.42;100.00;100729.81;4987106;28;20304;-74
2021/08/31 01:16:54;;;;;;;14.17;9.13;;;;;;;13.42;100.00;100732.44;4988339;28;20201;-73
2021/08/31 01:19:25;;;;;;;16.63;9.63;;;;;;;13.40;100.00;100732.53;4986149;28;20241;-73
2021/08/31 01:21:52;;;;;;;15.03;9.03;;;;;;;13.40;100.00;100731.63;4989033;28;20216;-74
2021/08/31 01:24:18;;;;;;;18.57;9.80;;;;;;;13.41;100.00;100733.38;4990886;28;20209;-73
2021/08/31 01:26:47;;;;;;;17.50;9.80;;;;;;;13.41;100.00;100736.81;4990134;28;20754;-73
2021/08/31 01:29:14;;;;;;;16.63;10.53;;;;;;;13.40;100.00;100747.34;4986731;28;20224;-75
2021/08/31 01:31:40;;;;;;;18.47;10.10;;;;;;;13.41;100.00;100735.97;4986679;28;20220;-73
2021/08/31 01:34:07;;;;;;;17.97;10.93;;;;;;;13.40;100.00;100729.03;4986406;28;20228;-73
2021/08/31 01:36:33;;;;;;;19.33;10.77;;;;;;;13.37;100.00;100732.63;4987132;28;20206;-73
2021/08/31 01:39:00;;;;;;;18.50;10.70;;;;;;;13.37;100.00;100726.53;4986055;28;20284;-73
2021/08/31 01:41:26;;;;;;;18.17;10.67;;;;;;;13.38;100.00;100728.22;4987083;28;20205;-73
2021/08/31 01:43:54;;;;;;;17.17;11.27;;;;;;;13.36;100.00;100730.91;4988729;28;20229;-74
2021/08/31 01:46:20;;;;;;;16.17;11.37;;;;;;;13.36;100.00;100723.03;4989715;28;20219;-74
2021/08/31 01:48:47;;;;;;;18.23;11.17;;;;;;;13.35;100.00;100723.09;4992390;28;20225;-73
2021/08/31 01:51:13;;;;;;;19.67;11.50;;;;;;;13.36;100.00;100725.66;4989304;28;20215;-75
2021/08/31 01:53:40;;;;;;;18.17;11.43;;;;;;;13.35;100.00;100718.72;4991586;28;20208;-73
2021/08/31 01:56:07;;;;;;;21.40;12.20;;;;;;;13.35;100.00;100721.34;4988290;28;20795;-73
2021/08/31 01:58:33;;;;;;;16.53;11.13;;;;;;;13.35;100.00;100721.34;4987524;28;20213;-73
2021/08/31 02:01:01;;;;;;;17.53;12.37;;;;;;;13.35;100.00;100728.31;4980100;28;20783;-73
2021/08/31 02:03:27;;;;;;;20.60;12.07;;;;;;;13.34;100.00;100724.03;4985705;28;20213;-74
2021/08/31 02:05:54;;;;;;;17.87;12.33;;;;;;;13.33;100.00;100720.56;4988570;28;20204;-73
2021/08/31 02:08:20;;;;;;;19.97;12.20;;;;;;;13.35;100.00;100723.09;4985898;28;20633;-73
2021/08/31 02:10:47;;;;;;;19.57;12.20;;;;;;;13.35;100.00;100725.72;4979890;28;20223;-74
2021/08/31 02:13:13;;;;;;;16.73;11.13;;;;;;;13.35;100.00;100728.31;4985748;28;20259;-73
2021/08/31 02:15:40;;;;;;;18.97;11.93;;;;;;;13.34;100.00;100727.47;4987801;28;20581;-74
2021/08/31 02:18:08;;;;;;;20.90;11.97;;;;;;;13.32;100.00;100724.06;4988664;28;20212;-72
2021/08/31 02:20:35;;;;;;;17.87;11.90;;;;;;;13.33;100.00;100727.53;4979871;28;20231;-73
2021/08/31 02:23:02;;;;;;;20.27;11.70;;;;;;;13.34;100.00;100721.41;4987601;28;20205;-73
2021/08/31 02:25:28;;;;;;;21.87;12.37;;;;;;;13.34;100.00;100726.63;4991355;28;20594;-73
2021/08/31 02:27:55;;;;;;;19.27;11.63;;;;;;;13.32;100.00;100724.06;4995581;28;20630;-73
2021/08/31 02:30:21;;;;;;;23.33;12.00;;;;;;;13.32;100.00;100726.69;4990377;28;20229;-74
2021/08/31 02:32:49;;;;;;;21.23;12.10;;;;;;;13.33;100.00;100724.91;5002980;28;20271;-72
2021/08/31 02:35:17;;;;;;;17.80;11.57;;;;;;;13.32;100.00;100721.44;4987973;28;20217;-73
2021/08/31 02:37:44;;;;;;;19.33;12.37;;;;;;;13.33;100.00;100735.41;4991211;28;20417;-74
2021/08/31 02:40:12;;;;;;;19.30;11.57;;;;;;;13.32;100.00;100731.09;4987505;28;20225;-73
2021/08/31 02:42:39;;;;;;;15.53;10.97;;;;;;;13.31;100.00;100724.97;4997234;28;20345;-74
2021/08/31 02:45:06;;;;;;;17.80;11.20;;;;;;;13.31;100.00;100724.09;4991640;28;20247;-74
2021/08/31 02:47:32;;;;;;;15.23;11.30;;;;;;;13.32;100.00;100725.84;4993580;28;20466;-74
2021/08/31 02:49:59;;;;;;;18.90;11.27;;;;;;;13.31;100.00;100732.81;4992365;28;20231;-73
2021/08/31 02:52:27;;;;;;;20.20;11.50;;;;;;;13.30;100.00;100728.47;4988146;28;20725;-73
2021/08/31 02:54:53;;;;;;;20.97;11.60;;;;;;;13.31;100.00;100717.13;4988501;28;20225;-73
2021/08/31 02:57:20;;;;;;;16.07;10.77;;;;;;;13.31;100.00;100730.19;4991561;28;20240;-73
2021/08/31 02:59:46;;;;;;;19.63;11.10;;;;;;;13.31;100.00;100724.97;4991678;28;20236;-73
2021/08/31 03:02:14;;;;;;;16.03;11.10;;;;;;;13.32;100.00;100731.09;4988682;28;20205;-73
2021/08/31 03:04:44;;;;;;;20.47;11.53;;;;;;;13.31;100.00;100731.94;4988857;28;20205;-73
2021/08/31 03:07:12;;;;;;;16.47;10.67;;;;;;;13.30;100.00;100723.25;4990467;28;20193;-73
2021/08/31 03:09:40;;;;;;;16.80;10.47;;;;;;;13.30;100.00;100736.34;4989589;28;20239;-73
2021/08/31 03:12:07;;;;;;;17.80;10.17;;;;;;;13.30;100.00;100738.97;4989795;28;20197;-74
2021/08/31 03:14:34;;;;;;;17.60;11.03;;;;;;;13.29;100.00;100734.63;4986192;28;20222;-74
2021/08/31 03:17:01;;;;;;;16.40;10.27;;;;;;;13.28;100.00;100740.78;4995037;28;20201;-73
2021/08/31 03:19:27;;;;;;;14.93;9.97;;;;;;;13.29;100.00;100741.63;4990569;28;20349;-72
2021/08/31 03:21:55;;;;;;;16.33;10.40;;;;;;;13.25;100.00;100739.09;4994028;28;20506;-72
2021/08/31 03:24:22;;;;;;;14.07;9.93;;;;;;;13.24;100.00;100739.16;4987454;28;20204;-72
2021/08/31 03:26:51;;;;;;;13.67;9.87;;;;;;;13.22;100.00;100743.59;4989553;28;20209;-73
2021/08/31 03:29:17;;;;;;;14.67;10.27;;;;;;;13.21;100.00;100739.28;4992925;28;20232;-73
2021/08/31 03:31:44;;;;;;;15.30;10.37;;;;;;;13.18;100.00;100728.91;4991623;28;20209;-73
2021/08/31 03:34:10;;;;;;;12.83;9.27;;;;;;;13.19;100.00;100738.47;4987125;28;20303;-74
2021/08/31 03:36:37;;;;;;;13.77;9.03;;;;;;;13.17;100.00;100735.91;4990091;28;20209;-74
2021/08/31 03:39:04;;;;;;;15.00;10.40;;;;;;;13.16;100.00;100736.81;4990130;28;20223;-73
2021/08/31 03:41:31;;;;;;;19.50;9.83;;;;;;;13.16;100.00;100743.84;4986947;28;20214;-74
2021/08/31 03:43:59;;;;;;;18.73;10.37;;;;;;;13.15;100.00;100739.50;4991972;28;20197;-73
2021/08/31 03:46:25;;;;;;;13.80;9.47;;;;;;;13.14;100.00;100743.88;4990281;28;20208;-73
2021/08/31 03:48:51;;;;;;;15.67;10.70;;;;;;;13.14;100.00;100743.88;4982969;28;20299;-72
2021/08/31 03:51:18;;;;;;;16.07;10.10;;;;;;;13.15;100.00;100756.03;4983651;28;20201;-73
2021/08/31 03:53:44;;;;;;;15.33;10.30;;;;;;;13.13;100.00;100749.16;4996836;28;20562;-73
2021/08/31 03:56:11;;;;;;;19.07;10.80;;;;;;;13.14;100.00;100753.47;4990577;28;20207;-73
2021/08/31 03:58:37;;;;;;;17.83;11.20;;;;;;;13.13;100.00;100757.03;4987070;28;20305;-74
2021/08/31 04:01:05;;;;;;;16.57;10.13;;;;;;;13.13;100.00;100754.41;4992702;28;20215;-73
2021/08/31 04:03:32;;;;;;;16.03;10.80;;;;;;;13.12;100.00;100758.78;4991232;28;20296;-73
2021/08/31 04:05:58;;;;;;;13.60;9.80;;;;;;;13.12;100.00;100763.16;4991946;28;20299;-72
2021/08/31 04:08:24;;;;;;;14.60;9.90;;;;;;;13.12;100.00;100764.03;4989554;28;20577;-73
2021/08/31 04:10:51;;;;;;;13.27;9.67;;;;;;;13.12;100.00;100761.41;4989227;28;20229;-73
2021/08/31 04:13:18;;;;;;;15.50;10.10;;;;;;;13.12;100.00;100760.53;4990099;28;20233;-73
2021/08/31 04:15:45;;;;;;;15.33;9.27;;;;;;;13.12;100.00;100764.03;4994456;28;20271;-73
2021/08/31 04:18:13;;;;;;;14.67;9.80;;;;;;;13.11;100.00;100759.69;4992062;28;20201;-74
2021/08/31 04:20:39;;;;;;;15.67;10.10;;;;;;;13.11;100.00;100758.84;4994043;28;20795;-75
2021/08/31 04:23:06;;;;;;;18.97;10.63;;;;;;;13.10;100.00;100770.22;4992336;28;20216;-73
2021/08/31 04:25:32;;;;;;;14.00;10.07;;;;;;;13.11;100.00;100762.31;4990347;28;20208;-74
2021/08/31 04:27:58;;;;;;;18.00;10.30;;;;;;;13.11;100.00;100764.91;4992005;28;20232;-73
2021/08/31 04:30:25;;;;;;;14.57;9.73;;;;;;;13.11;100.00;100761.47;4988969;28;20729;-73
2021/08/31 04:32:51;;;;;;;15.27;10.13;;;;;;;13.10;100.00;100767.59;4984583;28;20202;-75
2021/08/31 04:35:20;;;;;;;13.43;9.83;;;;;;;13.11;100.00;100764.06;4990741;28;20572;-72
2021/08/31 04:37:46;;;;;;;17.07;10.10;;;;;;;13.11;100.00;100769.31;4991225;28;20207;-73
2021/08/31 04:40:13;;;;;;;16.97;10.30;;;;;;;13.10;100.00;100772.81;4989168;28;20225;-73
2021/08/31 04:42:39;;;;;;;14.57;10.20;;;;;;;13.11;100.00;100774.53;4987778;28;20307;-73
2021/08/31 04:45:07;;;;;;;16.10;10.57;;;;;;;13.10;100.00;100781.53;4989023;28;20956;-73
2021/08/31 04:47:33;;;;;;;16.70;10.03;;;;;;;13.08;100.00;100776.34;4983540;28;20304;-73
2021/08/31 04:50:00;;;;;;;18.77;9.67;;;;;;;13.10;100.00;100775.44;4991493;28;20593;-74
2021/08/31 04:52:27;;;;;;;14.93;9.83;;;;;;;13.10;100.00;100773.66;4985199;28;20209;-74
2021/08/31 04:54:56;;;;;;;14.13;10.23;;;;;;;13.11;100.00;100774.53;4990453;28;20217;-74
2021/08/31 04:57:22;;;;;;;13.80;9.60;;;;;;;13.11;100.00;100772.78;4984015;28;20216;-75
2021/08/31 04:59:49;;;;;;;15.27;9.57;;;;;;;13.12;100.00;100769.25;4984573;28;20245;-75
2021/08/31 05:02:15;;;;;;;19.43;10.13;;;;;;;13.14;100.00;100782.28;4988919;28;20212;-75
2021/08/31 05:04:41;;;;;;;18.73;10.07;;;;;;;13.13;100.00;100770.94;4988909;28;20292;-73
2021/08/31 05:07:11;;;;;;;15.60;9.47;;;;;;;13.13;100.00;100775.34;4990205;28;20200;-74
2021/08/31 05:09:38;;;;;;;13.90;9.90;;;;;;;13.14;100.00;100777.03;4985879;28;20231;-75
2021/08/31 05:12:05;;;;;;;16.30;10.43;;;;;;;13.14;100.00;100782.28;4988935;28;20205;-75
2021/08/31 05:14:32;;;;;;;15.97;9.87;;;;;;;13.14;100.00;100783.16;4982651;28;20325;-74
2021/08/31 05:16:58;;;;;;;16.20;9.97;;;;;;;13.15;100.00;100779.59;4995548;28;20240;-74
2021/08/31 05:19:26;;;;;;;17.87;10.40;;;;;;;13.16;100.00;100789.19;4985795;28;20316;-73
2021/08/31 05:21:53;;;;;;;18.20;10.40;;;;;;;13.16;100.00;100783.09;4983973;28;20295;-75
2021/08/31 05:24:19;;;;;;;14.23;10.23;;;;;;;13.17;100.00;100783.00;4980126;28;20266;-75
2021/08/31 05:26:47;;;;;;;16.20;10.23;;;;;;;13.17;100.00;100793.50;4994046;28;20752;-72
2021/08/31 05:29:13;;;;;;;16.03;10.17;;;;;;;13.18;100.00;100787.34;4986365;28;20596;-74
2021/08/31 05:31:43;;;;;;;13.60;9.93;;;;;;;13.20;100.00;100789.94;4980791;28;20205;-75
2021/08/31 05:34:10;;;;;;;13.20;10.33;;;;;;;13.21;100.00;100792.50;4987913;28;20665;-74
2021/08/31 05:36:36;;;;;;;13.83;10.17;;;;;;;13.19;100.00;100789.09;4984646;28;20698;-72
2021/08/31 05:39:06;;;;;;;14.57;9.90;;;;;;;13.20;100.00;100789.94;4990092;28;20249;-74
2021/08/31 05:41:32;;;;;;;17.07;10.70;;;;;;;13.22;100.00;100788.94;4990502;28;20319;-75
2021/08/31 05:44:00;;;;;;;16.60;10.13;;;;;;;13.21;100.00;100784.66;4986958;28;20725;-75
2021/08/31 05:46:26;;;;;;;17.73;11.13;;;;;;;13.22;100.00;100788.09;4988613;28;20914;-75
2021/08/31 05:48:53;;;;;;;12.50;9.67;;;;;;;13.23;100.00;100790.69;4994265;28;20228;-75
2021/08/31 05:51:19;;;;;;;16.60;10.33;;;;;;;13.27;100.00;100792.28;4991881;28;20204;-73
2021/08/31 05:53:45;;;;;;;17.60;10.43;;;;;;;13.30;100.00;100790.44;4986348;28;20209;-73
2021/08/31 05:56:12;;;;;;;19.57;10.80;;;;;;;13.32;100.00;100786.06;4985444;28;20206;-75
2021/08/31 05:58:38;;;;;;;17.57;10.83;;;;;;;13.32;100.00;100789.53;4990910;28;20220;-75
2021/08/31 06:01:06;;;;;;;14.73;11.40;;;;;;;13.33;100.00;100803.47;4983477;28;20285;-73
2021/08/31 06:03:32;;;;;;;13.87;10.20;;;;;;;13.35;100.00;100799.91;4983050;28;20343;-74
2021/08/31 06:05:59;;;;;;;17.37;11.20;;;;;;;13.35;100.00;100799.91;4988013;28;20205;-75
2021/08/31 06:08:26;;;;;;;15.67;10.50;;;;;;;13.37;100.00;100802.47;4989232;28;20212;-72
2021/08/31 06:10:52;;;;;;;15.90;10.57;;;;;;;13.39;100.00;100792.81;4990873;28;20259;-75
2021/08/31 06:13:19;;;;;;;16.57;10.93;;;;;;;13.39;100.00;100796.25;4994007;28;20745;-76
2021/08/31 06:15:45;;;;;;;14.60;10.47;;;;;;;13.42;100.00;100798.78;4993444;28;20221;-71
2021/08/31 06:18:13;;;;;;;15.10;10.53;;;;;;;13.43;100.00;100799.63;4990408;28;20210;-74
2021/08/31 06:20:39;;;;;;;17.20;10.80;;;;;;;13.47;100.00;100792.53;4991697;28;20609;-75
2021/08/31 06:23:06;;;;;;;15.47;10.63;;;;;;;13.48;100.00;100800.31;4987032;28;20216;-75
2021/08/31 06:25:32;;;;;;;16.70;10.10;;;;;;;13.49;100.00;100802.06;4987002;28;20717;-74
2021/08/31 06:27:58;;;;;;;13.83;10.17;;;;;;;13.51;100.00;100807.22;4990947;28;20637;-75
2021/08/31 06:30:25;;;;;;;19.27;11.40;;;;;;;13.48;100.00;100812.56;4986371;28;20320;-75
2021/08/31 06:32:51;;;;;;;15.67;11.20;;;;;;;13.49;100.00;100811.66;4986189;28;20758;-74
2021/08/31 06:35:19;;;;;;;17.93;10.93;;;;;;;13.49;100.00;100809.03;4990348;28;20221;-75
2021/08/31 06:37:45;;;;;;;16.40;11.03;;;;;;;13.50;100.00;100810.75;4994720;28;20217;-75
2021/08/31 06:40:12;;;;;;;17.23;10.97;;;;;;;13.50;100.00;100808.13;4985194;28;20221;-75
2021/08/31 06:42:39;;;;;;;15.87;11.30;;;;;;;13.49;100.00;100820.38;4992905;28;20737;-73
2021/08/31 06:45:06;;;;;;;16.67;10.63;;;;;;;13.51;100.00;100822.91;4992139;28;20216;-72
2021/08/31 06:47:33;;;;;;;15.53;10.87;;;;;;;13.51;100.00;100822.91;4992471;28;20219;-75
2021/08/31 06:49:59;;;;;;;15.93;10.57;;;;;;;13.51;100.00;100826.41;4988211;28;20218;-72
2021/08/31 06:52:27;;;;;;;16.20;11.30;;;;;;;13.52;100.00;100832.50;4990089;28;20208;-75
2021/08/31 06:54:53;;;;;;;15.20;10.80;;;;;;;13.55;100.00;100835.03;4993519;28;20355;-73
2021/08/31 06:57:20;;;;;;;18.93;11.50;;;;;;;13.52;100.00;100830.72;4984357;28;20217;-75
2021/08/31 06:59:46;;;;;;;16.00;10.90;;;;;;;13.53;100.00;100831.59;4990594;28;20272;-74
2021/08/31 07:02:13;;;;;;;16.70;10.70;;;;;;;13.53;100.00;100829.84;4987733;28;20208;-75
2021/08/31 07:04:39;;;;;;;15.33;11.17;;;;;;;13.52;100.00;100825.50;4990736;28;20209;-75
2021/08/31 07:07:06;;;;;;;16.40;11.00;;;;;;;13.55;100.00;100829.78;4986170;28;20210;-75
2021/08/31 07:09:33;;;;;;;17.60;11.23;;;;;;;13.55;100.00;100830.63;4985504;28;20232;-73
2021/08/31 07:12:00;;;;;;;16.80;10.73;;;;;;;13.55;100.00;100830.63;4987965;28;20202;-74
2021/08/31 07:14:26;;;;;;;16.17;11.23;;;;;;;13.58;100.00;100835.78;4993322;28;20228;-73
2021/08/31 07:16:52;;;;;;;15.00;11.07;;;;;;;13.58;100.00;100835.78;4986929;28;20247;-73
2021/08/31 07:19:19;;;;;;;18.97;11.97;;;;;;;13.58;100.00;100834.91;4992008;28;20319;-73
2021/08/31 07:21:45;;;;;;;15.43;10.80;;;;;;;13.58;100.00;100833.16;4988748;28;20213;-72
2021/08/31 07:24:11;;;;;;;17.40;10.53;;;;;;;13.63;100.00;100832.97;4992776;28;20211;-74
2021/08/31 07:26:39;;;;;;;15.30;10.77;;;;;;;13.61;100.00;100833.03;4992409;28;20589;-74
2021/08/31 07:29:05;;;;;;;16.00;10.17;;;;;;;13.63;100.00;100836.47;4991639;28;20244;-75
2021/08/31 07:31:33;;;;;;;14.80;10.50;;;;;;;13.66;100.00;100837.25;4984675;28;20209;-74
2021/08/31 07:33:59;;;;;;;15.27;10.60;;;;;;;13.62;100.00;100842.59;5000793;28;20221;-74
2021/08/31 07:36:26;;;;;;;13.70;9.87;;;;;;;13.63;100.00;100832.97;4987801;28;20223;-74
2021/08/31 07:38:55;;;;;;;13.10;9.53;;;;;;;13.61;100.00;100840.91;4994947;28;20232;-74
2021/08/31 07:41:21;;;;;;;13.47;9.43;;;;;;;13.58;100.00;100840.16;4991392;28;20713;-74
2021/08/31 07:43:49;;;;;;;15.07;9.37;;;;;;;13.60;100.00;100854.91;4991130;28;20756;-75
2021/08/31 07:46:16;;;;;;;13.23;9.50;;;;;;;13.63;100.00;100859.16;4991781;28;20205;-75
2021/08/31 07:48:42;;;;;;;12.30;8.87;;;;;;;13.59;100.00;100849.72;4994942;28;20632;-74
2021/08/31 07:51:09;;;;;;;12.37;8.53;;;;;;;13.58;100.00;100863.75;4989530;28;20332;-74
2021/08/31 07:53:35;;;;;;;12.73;8.80;;;;;;;13.61;100.00;100871.47;4990607;28;20236;-75
2021/08/31 07:56:02;;;;;;;14.03;9.03;;;;;;;13.62;100.00;100868.81;4992925;28;20222;-75
2021/08/31 07:58:28;;;;;;;13.23;8.93;;;;;;;13.67;100.00;100866.03;4989712;28;20264;-74
2021/08/31 08:00:56;;;;;;;13.53;9.47;;;;;;;13.69;100.00;100873.84;4998366;28;20212;-74
2021/08/31 08:03:22;;;;;;;14.97;9.73;;;;;;;13.76;100.00;100877.94;4990434;28;20248;-75
2021/08/31 08:05:49;;;;;;;14.50;9.53;;;;;;;13.76;100.00;100875.34;4995911;28;20209;-75
2021/08/31 08:08:15;;;;;;;12.57;9.20;;;;;;;13.76;100.00;100885.81;4991776;28;20222;-75
2021/08/31 08:10:41;;;;;;;14.13;9.83;;;;;;;13.79;100.00;100876.06;4989928;28;20693;-73
2021/08/31 08:13:08;;;;;;;13.90;10.10;;;;;;;13.87;100.00;100881.03;4995036;28;20305;-75
2021/08/31 08:15:34;;;;;;;17.00;11.13;;;;;;;13.96;100.00;100885.09;4990395;28;20218;-74
2021/08/31 08:18:02;;;;;;;15.20;11.43;;;;;;;13.97;100.00;100884.19;4992673;28;20297;-75
2021/08/31 08:20:29;;;;;;;13.60;10.70;;;;;;;14.03;100.00;100889.19;4993839;28;20313;-74
2021/08/31 08:22:55;;;;;;;16.13;11.40;;;;;;;14.01;100.00;100894.50;4996911;28;20678;-75
2021/08/31 08:25:22;;;;;;;15.07;10.83;;;;;;;14.02;100.00;100890.13;4991146;28;20204;-76
2021/08/31 08:27:48;;;;;;;13.37;10.97;;;;;;;14.02;100.00;100903.25;4989834;28;20209;-74
2021/08/31 08:30:15;;;;;;;13.23;10.47;;;;;;;14.06;100.00;100894.34;4985344;28;20360;-73
2021/08/31 08:32:42;;;;;;;18.47;11.70;;;;;;;14.10;100.00;100895.09;4996550;28;20205;-73
2021/08/31 08:35:12;;;;;;;14.13;10.57;;;;;;;14.12;100.00;100896.72;4991551;28;20307;-75
2021/08/31 08:37:38;;;;;;;16.13;11.27;;;;;;;14.15;100.00;100903.63;4988072;28;20232;-75
2021/08/31 08:40:06;;;;;;;14.70;10.53;;;;;;;14.20;100.00;100910.41;4993244;28;21150;-75
2021/08/31 08:42:33;;;;;;;17.17;10.80;;;;;;;14.28;100.00;100911.91;4987295;28;20234;-75
2021/08/31 08:44:59;;;;;;;16.33;11.70;;;;;;;14.29;100.00;100905.75;4991291;28;20271;-75
2021/08/31 08:47:26;;;;;;;14.23;11.13;;;;;;;14.33;100.00;100908.19;4990021;28;20221;-72
2021/08/31 08:49:52;;;;;;;16.97;11.93;;;;;;;14.42;100.00;100907.00;4985902;28;20233;-74
2021/08/31 08:56:14;;;;;;;14.93;11.40;;;;;;;14.55;100.00;100905.63;4926201;23;20240;-77
2021/08/31 08:58:41;;;;;;;17.03;11.87;;;;;;;14.64;100.00;100912.31;4981646;28;20617;-76
2021/08/31 09:01:11;;;;;;;17.60;12.53;;;;;;;14.80;100.00;100907.31;4983725;28;20210;-77
2021/08/31 09:03:39;;;;;;;14.93;12.00;;;;;;;14.88;100.00;100902.66;4986303;28;20212;-77
2021/08/31 09:06:07;;;;;;;18.67;13.20;;;;;;;15.03;100.00;100897.69;4984563;28;20207;-76
2021/08/31 09:08:35;;;;;;;19.03;13.67;;;;;;;15.15;100.00;100899.81;4984929;28;20204;-78
2021/08/31 09:11:17;;;;;;;18.80;13.33;;;;;;;15.24;100.00;100906.47;4986067;28;20220;-78
2021/08/31 09:13:44;;;;;;;19.13;13.87;;;;;;;15.37;100.00;100904.19;4975439;28;20208;-77
2021/08/31 09:16:22;;;;;;;18.33;13.83;;;;;;;15.53;100.00;100903.47;4982951;28;20220;-78
2021/08/31 09:18:50;;;;;;;18.33;13.63;;;;;;;15.58;100.00;100905.03;4983616;28;20918;-77
2021/08/31 09:21:22;;;;;;;19.50;13.80;;;;;;;15.67;100.00;100902.91;4985677;28;20193;-76
2021/08/31 09:23:50;;;;;;;15.90;11.80;;;;;;;15.70;100.00;100905.38;4983021;28;20216;-76
2021/08/31 09:26:19;;;;;;;16.27;12.27;;;;;;;15.63;100.00;100909.19;4985739;28;20203;-77
2021/08/31 09:28:47;;;;;;;13.93;10.10;;;;;;;15.58;100.00;100916.41;4976347;28;20221;-78
2021/08/31 09:31:18;;;;;;;13.57;10.47;;;;;;;15.58;100.00;100910.31;4986472;28;20219;-77
2021/08/31 09:33:47;;;;;;;15.50;10.07;;;;;;;15.56;100.00;100910.38;4990303;28;20201;-78
2021/08/31 09:36:15;;;;;;;10.87;8.77;;;;;;;15.49;100.00;100915.03;4987195;28;20228;-77
2021/08/31 09:38:53;;;;;;;12.50;9.43;;;;;;;15.49;100.00;100912.38;4980618;28;20664;-77
2021/08/31 09:41:29;;;;;;;10.57;9.20;;;;;;;15.46;100.00;100911.66;4985652;28;20325;-77
2021/08/31 09:43:56;;;;;;;11.13;9.07;;;;;;;15.55;100.00;100908.69;4985424;28;20698;-77
2021/08/31 09:46:23;;;;;;;13.27;9.90;;;;;;;15.64;100.00;100903.03;4984832;28;20216;-77
2021/08/31 09:48:50;;;;;;;11.70;9.77;;;;;;;15.73;100.00;100914.06;4984278;28;20209;-76
2021/08/31 09:51:17;;;;;;;13.37;9.10;;;;;;;15.82;100.00;100914.53;4984356;28;20204;-77
2021/08/31 09:53:43;;;;;;;11.67;9.03;;;;;;;15.89;100.00;100921.25;4984192;28;20641;-77
2021/08/31 09:56:11;;;;;;;11.40;8.37;;;;;;;15.95;100.00;100924.53;4989705;28;20618;-77
2021/08/31 09:58:40;;;;;;;10.10;7.97;;;;;;;15.93;100.00;100923.75;4985743;28;20247;-76
2021/08/31 10:01:07;;;;;;;12.43;7.93;;;;;;;15.95;100.00;100930.63;4986248;28;20311;-76
2021/08/31 10:03:34;;;;;;;11.77;7.70;;;;;;;16.08;100.00;100923.91;4983793;28;20205;-76
2021/08/31 10:06:03;;;;;;;9.23;7.67;;;;;;;16.16;100.00;100925.34;4984588;28;20260;-75
2021/08/31 10:08:32;;;;;;;12.13;7.57;;;;;;;16.29;100.00;100939.69;4983766;28;20203;-75
2021/08/31 10:11:00;;;;;;;7.77;6.70;;;;;;;16.30;100.00;100945.78;4984535;28;20310;-75
2021/08/31 10:13:27;;;;;;;8.70;6.37;;;;;;;16.28;100.00;100936.16;4984581;28;20248;-76
2021/08/31 10:15:57;;;;;;;7.47;5.93;;;;;;;16.25;100.00;100938.97;4984701;28;20214;-76
2021/08/31 10:18:26;;;;;;;9.03;6.23;;;;;;;16.18;100.00;100934.91;4984534;28;20209;-76
2021/08/31 10:20:55;;;;;;;9.93;6.20;;;;;;;16.06;100.00;100945.97;4981236;28;20229;-76
2021/08/31 10:23:25;;;;;;;7.03;5.90;;;;;;;15.99;100.00;100929.59;4984598;28;20288;-76
2021/08/31 10:25:52;;;;;;;7.80;6.23;;;;;;;15.87;100.00;100941.50;4982188;28;20694;-76
2021/08/31 10:28:26;;;;;;;10.10;6.20;;;;;;;15.83;100.00;100941.69;4986130;28;20237;-75
2021/08/31 10:30:54;;;;;;;8.83;6.83;;;;;;;15.79;100.00;100948.00;4982507;28;20232;-75
2021/08/31 10:33:34;;;;;;;9.23;6.83;;;;;;;15.78;100.00;100947.16;4981821;28;20223;-76
2021/08/31 10:36:01;;;;;;;10.03;7.47;;;;;;;15.85;100.00;100950.38;4983646;28;20249;-76
2021/08/31 10:38:43;;;;;;;9.73;7.60;;;;;;;16.07;100.00;100947.66;4980747;28;20551;-76
2021/08/31 10:41:34;;;;;;;9.67;7.80;;;;;;;16.15;100.00;100950.81;4984155;28;20209;-76
2021/08/31 10:44:01;;;;;;;11.27;7.87;;;;;;;16.18;100.00;100950.69;4989175;28;20208;-76
2021/08/31 10:47:07;;;;;;;11.33;8.30;;;;;;;16.18;100.00;100957.69;4987661;28;20209;-75
2021/08/31 10:50:04;;;;;;;10.20;7.33;;;;;;;16.17;100.00;100956.00;4984451;28;20225;-76
2021/08/31 10:52:34;;;;;;;10.73;7.80;;;;;;;16.17;100.00;100958.63;4978684;28;20586;-75
2021/08/31 10:55:00;;;;;;;8.03;6.93;;;;;;;16.16;100.00;100954.28;4983686;28;20224;-75
2021/08/31 10:57:43;;;;;;;10.07;7.53;;;;;;;16.38;100.00;100954.19;4987688;28;20213;-76
2021/08/31 11:00:47;;;;;;;8.53;6.83;;;;;;;16.39;100.00;100964.66;4988907;28;20248;-75
2021/08/31 11:03:31;;;;;;;9.10;7.20;;;;;;;16.53;100.00;100977.16;4990444;28;20205;-76
2021/08/31 11:06:27;;;;;;;6.63;5.93;;;;;;;16.66;100.00;100975.69;4988463;28;20221;-76
2021/08/31 11:09:17;;;;;;;6.90;6.00;;;;;;;16.52;100.00;100977.25;4981404;28;20689;-75
2021/08/31 11:11:47;;;;;;;7.07;5.73;;;;;;;16.36;100.00;100967.41;4990800;28;20300;-75